METAR Data
IDs: Format: Raw Decoded Include TAF

Data at: 1108 UTC 30 Oct 2020

KVRB 301053Z AUTO 30005KT 10SM FEW019 BKN040 OVC050 23/21 A2993 RMK AO2 RAB27E36 SLP134 P0000 T02280211
KVRB 301041Z AUTO 31006KT 10SM SCT006 BKN030 OVC037 23/21 A2993 RMK AO2 RAB27E36 P0000 T02280211
KVRB 301011Z AUTO 29006KT 10SM SCT005 BKN009 BKN036 25/24 A2991 RMK AO2 T02500239 $
KVRB 300953Z AUTO 24005KT 10SM FEW010 BKN035 25/24 A2991 RMK AO2 SLP127 T02500239 $
KVRB 300853Z AUTO 22006KT 10SM BKN110 25/24 A2990 RMK AO2 SLP125 T02500239 56003 $
KVRB 300753Z AUTO 23005KT 10SM BKN100 25/23 A2991 RMK AO2 SLP126 T02500233 $
KVRB 300653Z AUTO 22007KT 10SM CLR 25/23 A2991 RMK AO2 SLP126 T02500233 $
KVRB 300553Z AUTO 22007KT 10SM CLR 25/23 A2991 RMK AO2 SLP128 T02500233 10283 20250 58004 $
KVRB 300453Z AUTO 21006KT 10SM CLR 26/23 A2992 RMK AO2 SLP130 T02560233 403220244 $
KVRB 300353Z AUTO 21006KT 10SM CLR 26/23 A2992 RMK AO2 SLP131 T02610233 $
KVRB 300253Z AUTO 21006KT 10SM BKN049 27/23 A2992 RMK AO2 SLP132 T02720233 51015 $
KVRB 300153Z AUTO 20006KT 10SM SCT048 28/23 A2991 RMK AO2 SLP127 T02780233
KVRB 300053Z 23004KT 10SM FEW043 28/23 A2990 RMK AO2 SLP124 T02780233
KVRB 292353Z 19004KT 10SM FEW075 28/23 A2988 RMK AO2 SLP117 T02830233 10322 20283 53012
KVRB 292253Z 20005KT 10SM FEW049 29/23 A2986 RMK AO2 SLP111 T02940228
KVRB 292153Z 21007KT 10SM CLR 31/22 A2985 RMK AO2 SLP107 T03060222
KVRB 292053Z 21011KT 10SM CLR 32/22 A2985 RMK AO2 SLP105 T03170222 56020
KVRB 291953Z 20013KT 10SM SCT040 32/22 A2986 RMK AO2 SLP109 T03220222
KVRB 291853Z 20011G19KT 10SM SCT040 32/22 A2988 RMK AO2 SLP116 T03220222
KVRB 291753Z 21011G18KT 10SM SCT034 32/22 A2990 RMK AO2 SLP125 T03170222 10322 20244 58026
KVRB 291653Z 20010KT 10SM FEW036 31/23 A2994 RMK AO2 SLP136 T03110228
KVRB 291553Z 19012KT 10SM FEW028 SCT035 SCT045 30/23 A2997 RMK AO2 SLP147 T03000228
KVRB 291453Z 19012KT 10SM SCT021 SCT029 BKN046 29/24 A2998 RMK AO2 SLP152 T02890239 51007
KVRB 291432Z 20010KT 170V230 10SM SCT019 SCT024 BKN029 28/24 A2998 RMK AO2 T02830239
KVRB 291353Z 19010KT 10SM SCT012 28/24 A2998 RMK AO2 SLP150 T02780244
KVRB 291253Z 19006KT 10SM CLR 26/24 A2997 RMK AO2 SLP148 T02610239
KVRB 291153Z 19004KT 10SM CLR 24/23 A2996 RMK AO2 SLP145 60001 70010 T02440233 10261 20244 53004

KVRB 300520Z 3006/3106 23006KT P6SM FEW040 FEW060 SCT200
  FM300900 27006KT P6SM VCSH SCT025 SCT040 BKN200
  FM301200 30007KT P6SM SCT025 SCT040
  FM301400 33010KT P6SM FEW030 FEW150 SCT250
  FM301800 36008KT P6SM FEW030 SCT250
  FM310000 01005KT P6SM FEW250